Time;durP1;ratioP1;P1;durP2;ratioP2;P2;SDS_P1;SDS_P2;PMS_P1;PMS_P2;Temp;Humidity;BMP_temperature;BMP_pressure;BME280_temperature;BME280_humidity;BME280_pressure;Samples;Min_cycle;Max_cycle;Signal;HPM_P1;HPM_P2
2023/08/13 00:00:18;;;;;;;6.88;1.13;;;16.80;99.90;;;;;;5052103;28;20651;-72
2023/08/13 00:02:44;;;;;;;8.45;1.67;;;17.10;99.90;;;;;;5052759;28;20311;-72
2023/08/13 00:05:09;;;;;;;10.70;1.60;;;16.70;99.90;;;;;;5052940;28;20248;-72
2023/08/13 00:07:35;;;;;;;7.85;1.73;;;17.00;99.90;;;;;;5052997;28;20264;-71
2023/08/13 00:10:02;;;;;;;8.27;1.50;;;17.00;99.90;;;;;;5052808;28;20209;-73
2023/08/13 00:12:28;;;;;;;5.28;1.13;;;17.00;99.90;;;;;;5051708;28;20193;-72
2023/08/13 00:14:54;;;;;;;9.57;1.65;;;17.00;99.90;;;;;;5052891;28;20682;-72
2023/08/13 00:17:19;;;;;;;7.40;1.30;;;16.90;99.90;;;;;;5052826;28;20165;-73
2023/08/13 00:19:45;;;;;;;6.63;1.17;;;16.80;99.90;;;;;;5051395;28;20184;-73
2023/08/13 00:22:11;;;;;;;6.95;1.30;;;17.00;99.90;;;;;;5052893;28;20517;-72
2023/08/13 00:24:36;;;;;;;5.30;1.30;;;17.00;99.90;;;;;;5052770;28;20704;-72
2023/08/13 00:27:02;;;;;;;8.65;1.55;;;16.90;99.90;;;;;;5052429;28;20224;-72
2023/08/13 00:29:28;;;;;;;9.13;1.30;;;16.70;99.90;;;;;;5052673;28;20251;-73
2023/08/13 00:31:55;;;;;;;7.50;1.30;;;17.10;99.90;;;;;;5051311;28;20643;-74
2023/08/13 00:34:21;;;;;;;7.07;1.60;;;16.80;99.90;;;;;;5052468;28;20180;-73
2023/08/13 00:36:47;;;;;;;6.47;1.33;;;16.50;99.90;;;;;;5052500;28;20226;-73
2023/08/13 00:39:12;;;;;;;3.83;1.00;;;16.80;99.90;;;;;;5052451;28;20237;-72
2023/08/13 00:41:38;;;;;;;5.80;1.30;;;;;;;;;;5052424;28;20180;-73
2023/08/13 00:44:04;;;;;;;5.85;1.50;;;16.70;99.90;;;;;;5052497;28;20168;-73
2023/08/13 00:46:30;;;;;;;5.32;1.25;;;16.60;99.90;;;;;;5052420;28;20659;-73
2023/08/13 00:48:58;;;;;;;8.35;1.48;;;16.60;99.90;;;;;;5052158;28;20267;-73
2023/08/13 00:51:24;;;;;;;7.32;1.70;;;16.60;99.90;;;;;;5052085;28;20200;-73
2023/08/13 00:53:50;;;;;;;4.63;1.08;;;16.60;99.90;;;;;;5051982;28;20219;-73
2023/08/13 00:56:16;;;;;;;4.10;1.33;;;16.60;99.90;;;;;;5052223;28;20165;-73
2023/08/13 00:58:43;;;;;;;6.18;1.05;;;16.60;99.90;;;;;;5052209;28;20238;-74
2023/08/13 01:01:10;;;;;;;3.45;1.20;;;16.50;99.90;;;;;;5052071;28;20710;-72
2023/08/13 01:03:38;;;;;;;7.80;1.45;;;16.70;99.90;;;;;;5051897;28;20722;-72
2023/08/13 01:06:46;;;;;;;6.47;1.50;;;16.70;99.90;;;;;;5052121;28;20182;-72
2023/08/13 01:09:49;;;;;;;3.80;1.10;;;16.80;99.90;;;;;;5050714;28;20181;-72
2023/08/13 01:12:18;;;;;;;8.43;1.42;;;16.70;99.90;;;;;;5051821;28;20635;-72
2023/08/13 01:15:14;;;;;;;3.75;1.15;;;16.70;99.90;;;;;;5051825;28;20512;-72
2023/08/13 01:17:41;;;;;;;4.68;1.20;;;16.60;99.90;;;;;;5050497;28;20207;-73
2023/08/13 01:20:07;;;;;;;7.05;1.00;;;16.60;99.90;;;;;;5051607;28;20165;-72
2023/08/13 01:22:46;;;;;;;5.55;1.30;;;16.70;99.90;;;;;;5051774;28;20172;-72
2023/08/13 01:25:12;;;;;;;5.38;1.20;;;16.60;99.90;;;;;;5050189;28;20743;-73
2023/08/13 01:28:04;;;;;;;8.05;1.48;;;16.60;99.90;;;;;;5051472;28;20185;-72
2023/08/13 01:30:45;;;;;;;6.38;1.58;;;16.50;99.90;;;;;;5051339;28;20213;-72
2023/08/13 01:33:18;;;;;;;5.57;1.20;;;16.70;99.90;;;;;;5051446;28;20169;-72
2023/08/13 01:35:44;;;;;;;6.82;1.20;;;16.70;99.90;;;;;;5051411;28;20169;-73
2023/08/13 01:38:10;;;;;;;4.65;1.23;;;16.50;99.90;;;;;;5051283;28;20173;-72
2023/08/13 01:40:36;;;;;;;6.70;1.33;;;16.70;99.90;;;;;;5041469;28;20177;-73
2023/08/13 01:43:02;;;;;;;8.98;1.42;;;18.70;99.90;;;;;;5013248;28;20219;-73
2023/08/13 01:45:28;;;;;;;7.20;1.40;;;16.60;99.90;;;;;;5033672;28;20178;-72
2023/08/13 01:47:54;;;;;;;5.95;1.67;;;;;;;;;;5051062;28;20173;-72
2023/08/13 01:50:21;;;;;;;5.70;1.10;;;16.60;99.90;;;;;;5049694;28;20636;-72
2023/08/13 01:52:46;;;;;;;10.25;1.30;;;16.70;99.90;;;;;;5051209;28;20173;-73
2023/08/13 01:55:12;;;;;;;5.32;1.30;;;16.70;99.90;;;;;;5050684;28;20169;-73
2023/08/13 01:57:38;;;;;;;5.60;1.40;;;;;;;;;;5049283;28;20177;-74
2023/08/13 02:00:06;;;;;;;5.25;1.50;;;16.60;99.90;;;;;;5049604;28;20651;-73
2023/08/13 02:02:35;;;;;;;9.05;1.38;;;16.70;99.90;;;;;;5049602;28;20165;-73
2023/08/13 02:05:01;;;;;;;7.28;1.27;;;16.70;99.90;;;;;;5050910;28;20277;-74
2023/08/13 02:07:26;;;;;;;5.88;1.27;;;16.50;99.90;;;;;;5050913;28;20659;-72
2023/08/13 02:09:52;;;;;;;3.33;1.27;;;16.50;99.90;;;;;;5049490;28;20565;-72
2023/08/13 02:12:18;;;;;;;5.95;1.42;;;16.30;99.90;;;;;;5049312;28;20177;-72
2023/08/13 02:14:43;;;;;;;7.57;1.50;;;16.50;99.90;;;;;;5050779;28;20223;-73
2023/08/13 02:17:14;;;;;;;8.55;1.25;;;16.50;99.90;;;;;;5050732;28;20207;-72
2023/08/13 02:19:40;;;;;;;6.72;1.58;;;17.10;99.90;;;;;;5050878;28;20177;-73
2023/08/13 02:22:06;;;;;;;4.38;1.08;;;16.40;99.90;;;;;;5050661;28;20169;-73
2023/08/13 02:24:32;;;;;;;7.43;1.42;;;16.80;99.90;;;;;;5054958;28;20165;-73
2023/08/13 02:26:58;;;;;;;7.35;1.27;;;16.60;99.90;;;;;;5054743;28;20790;-72
2023/08/13 02:29:24;;;;;;;8.48;1.33;;;16.50;99.90;;;;;;5054784;28;20256;-73
2023/08/13 02:31:50;;;;;;;6.20;1.35;;;16.60;99.90;;;;;;5054722;28;20188;-74
2023/08/13 02:34:15;;;;;;;5.43;1.27;;;16.60;99.90;;;;;;5049835;28;20188;-72
2023/08/13 02:36:41;;;;;;;5.72;1.55;;;16.40;99.90;;;;;;5034777;28;20177;-72
2023/08/13 02:39:07;;;;;;;6.32;1.60;;;16.60;99.90;;;;;;5064353;28;20738;-73
2023/08/13 02:41:33;;;;;;;8.35;1.50;;;16.60;99.90;;;;;;5054146;28;20193;-73
2023/08/13 02:43:58;;;;;;;4.22;1.30;;;16.60;99.90;;;;;;5054349;28;20194;-73
2023/08/13 02:46:26;;;;;;;8.00;1.63;;;18.20;99.90;;;;;;5054283;28;20658;-72
2023/08/13 02:48:55;;;;;;;5.18;1.50;;;16.60;99.90;;;;;;5054491;28;20169;-72
2023/08/13 02:51:23;;;;;;;6.75;1.35;;;16.50;99.90;;;;;;5053868;28;20248;-71
2023/08/13 02:53:48;;;;;;;4.75;1.50;;;16.40;99.90;;;;;;5039975;28;20197;-72
2023/08/13 02:56:14;;;;;;;12.75;2.25;;;16.60;99.90;;;;;;5049259;28;20714;-72
2023/08/13 02:58:40;;;;;;;6.70;1.27;;;16.50;99.90;;;;;;5053967;28;20189;-72
2023/08/13 03:01:05;;;;;;;6.20;1.50;;;16.50;99.90;;;;;;5054097;28;20184;-73
2023/08/13 03:03:31;;;;;;;8.98;1.80;;;16.50;99.90;;;;;;5036905;28;20535;-73
2023/08/13 03:05:57;;;;;;;4.65;1.30;;;16.50;99.90;;;;;;5034257;28;20174;-74
2023/08/13 03:08:23;;;;;;;5.50;1.27;;;16.40;99.90;;;;;;5034046;28;20176;-73
2023/08/13 03:10:49;;;;;;;7.93;2.03;;;16.50;99.90;;;;;;5034037;28;20300;-74
2023/08/13 03:13:15;;;;;;;7.22;1.42;;;16.40;99.90;;;;;;5034063;28;20174;-74
2023/08/13 03:15:40;;;;;;;5.35;1.40;;;16.40;99.90;;;;;;5042893;28;20177;-73
2023/08/13 03:18:07;;;;;;;3.92;1.45;;;16.40;99.90;;;;;;5054034;28;20317;-73
2023/08/13 03:20:33;;;;;;;10.40;1.65;;;16.40;99.90;;;;;;5053476;28;20173;-73
2023/08/13 03:22:59;;;;;;;5.45;1.10;;;16.10;99.90;;;;;;5053732;28;20184;-74
2023/08/13 03:25:25;;;;;;;3.38;1.10;;;16.40;99.90;;;;;;5053300;28;20219;-73
2023/08/13 03:27:51;;;;;;;5.45;1.52;;;16.30;99.90;;;;;;5053612;28;20172;-73
2023/08/13 03:30:17;;;;;;;7.25;1.65;;;16.30;99.90;;;;;;5053285;28;20280;-74
2023/08/13 03:32:42;;;;;;;3.58;1.00;;;16.20;99.90;;;;;;5053596;28;20307;-73
2023/08/13 03:35:08;;;;;;;4.28;1.00;;;16.30;99.90;;;;;;5052036;28;20179;-73
2023/08/13 03:37:34;;;;;;;5.38;1.30;;;16.30;99.90;;;;;;5053472;28;20173;-73
2023/08/13 03:40:00;;;;;;;2.60;1.27;;;16.30;99.90;;;;;;5053134;28;20173;-73
2023/08/13 03:42:25;;;;;;;2.88;0.85;;;16.30;99.90;;;;;;5053526;28;20671;-73
2023/08/13 03:44:52;;;;;;;4.13;1.25;;;16.30;99.90;;;;;;5053079;28;20227;-73
2023/08/13 03:47:18;;;;;;;6.25;1.08;;;16.30;99.90;;;;;;5052807;28;20178;-73
2023/08/13 03:49:43;;;;;;;5.45;1.33;;;18.40;99.90;;;;;;5052996;28;20698;-73
2023/08/13 03:52:12;;;;;;;1.92;1.00;;;16.40;99.90;;;;;;5053265;28;20192;-73
2023/08/13 03:54:37;;;;;;;3.08;1.00;;;16.40;99.90;;;;;;5053167;28;20200;-73
2023/08/13 03:57:03;;;;;;;3.08;1.10;;;16.40;99.90;;;;;;5053161;28;20201;-72
2023/08/13 03:59:29;;;;;;;4.68;1.08;;;16.40;99.90;;;;;;5052951;28;20166;-73
2023/08/13 04:01:57;;;;;;;2.05;0.85;;;16.30;99.90;;;;;;5052180;28;20706;-73
2023/08/13 04:04:23;;;;;;;7.53;1.20;;;16.40;99.90;;;;;;5052965;28;20179;-72
2023/08/13 04:06:48;;;;;;;2.88;1.13;;;16.40;99.90;;;;;;5053106;28;20256;-71
2023/08/13 04:09:14;;;;;;;5.95;1.42;;;16.40;99.90;;;;;;5052788;28;20651;-71
2023/08/13 04:11:39;;;;;;;6.88;1.30;;;16.30;99.90;;;;;;5052819;28;20221;-71
2023/08/13 04:14:05;;;;;;;6.05;1.45;;;16.30;99.90;;;;;;5052991;28;20169;-70
2023/08/13 04:16:30;;;;;;;4.53;1.10;;;16.20;99.90;;;;;;5052959;28;20170;-71
2023/08/13 04:18:56;;;;;;;4.03;1.17;;;16.20;99.90;;;;;;5052884;28;20249;-71
2023/08/13 04:21:25;;;;;;;5.88;1.25;;;16.20;99.90;;;;;;5052703;28;20177;-71
2023/08/13 04:23:55;;;;;;;8.77;1.50;;;16.20;99.90;;;;;;5053076;28;20200;-70
2023/08/13 04:26:20;;;;;;;4.30;1.00;;;16.20;99.90;;;;;;5051438;28;20220;-72
2023/08/13 04:28:46;;;;;;;2.65;1.17;;;16.20;99.90;;;;;;5052596;28;20188;-70
2023/08/13 04:31:11;;;;;;;5.05;1.27;;;16.20;99.90;;;;;;5052575;28;20599;-71
2023/08/13 04:33:37;;;;;;;8.40;1.50;;;16.20;99.90;;;;;;5052629;28;20175;-70
2023/08/13 04:36:03;;;;;;;4.43;1.20;;;16.20;99.90;;;;;;5052486;28;20536;-72
2023/08/13 04:38:28;;;;;;;4.63;1.02;;;16.20;99.90;;;;;;5052711;28;20169;-71
2023/08/13 04:40:54;;;;;;;2.75;1.23;;;16.30;99.90;;;;;;5052347;28;20545;-71
2023/08/13 04:43:19;;;;;;;3.63;1.10;;;16.20;99.90;;;;;;5052689;28;20244;-72
2023/08/13 04:45:46;;;;;;;3.88;1.48;;;16.20;99.90;;;;;;5051721;28;20198;-72
2023/08/13 04:48:16;;;;;;;4.97;1.30;;;16.20;99.90;;;;;;5052297;28;20169;-72
2023/08/13 04:50:41;;;;;;;3.70;1.25;;;16.20;99.90;;;;;;5050860;28;20769;-72
2023/08/13 04:53:07;;;;;;;10.23;1.52;;;16.20;99.90;;;;;;5052298;28;20200;-72
2023/08/13 04:55:33;;;;;;;5.82;1.20;;;16.90;99.90;;;;;;5052174;28;20180;-72
2023/08/13 04:57:59;;;;;;;7.55;1.52;;;16.20;99.90;;;;;;5052084;28;20311;-72
2023/08/13 05:00:24;;;;;;;2.75;1.05;;;16.20;99.90;;;;;;5051972;28;20658;-72
2023/08/13 05:02:50;;;;;;;4.82;1.30;;;16.30;99.90;;;;;;5052023;28;20165;-72
2023/08/13 05:05:15;;;;;;;4.68;1.25;;;16.30;99.90;;;;;;5051380;28;20569;-72
2023/08/13 05:07:41;;;;;;;4.50;1.52;;;16.40;99.90;;;;;;5051850;28;20203;-72
2023/08/13 05:10:07;;;;;;;3.38;1.15;;;16.10;99.90;;;;;;5051379;28;20255;-71
2023/08/13 05:12:33;;;;;;;5.05;1.25;;;16.40;99.90;;;;;;5051745;28;20603;-71
2023/08/13 05:14:58;;;;;;;8.38;1.80;;;16.40;99.90;;;;;;5051242;28;20181;-70
2023/08/13 05:17:25;;;;;;;5.72;1.35;;;16.40;99.90;;;;;;5051557;28;20253;-71
2023/08/13 05:19:51;;;;;;;6.25;1.48;;;16.40;99.90;;;;;;5051346;28;20169;-71
2023/08/13 05:22:17;;;;;;;8.02;1.58;;;16.40;99.90;;;;;;5051370;28;20200;-71
2023/08/13 05:24:42;;;;;;;6.82;1.10;;;16.30;99.90;;;;;;5049785;28;20695;-72
2023/08/13 05:27:08;;;;;;;4.13;1.10;;;16.40;99.90;;;;;;5051437;28;20252;-72
2023/08/13 05:29:34;;;;;;;5.70;1.20;;;16.40;99.90;;;;;;5051385;28;20177;-72
2023/08/13 05:31:59;;;;;;;5.45;1.15;;;16.40;99.90;;;;;;5051353;28;20256;-72
2023/08/13 05:34:25;;;;;;;4.38;1.02;;;16.40;99.90;;;;;;5050111;28;20169;-72
2023/08/13 05:36:50;;;;;;;6.05;1.40;;;16.50;99.90;;;;;;5051614;28;20577;-72
2023/08/13 05:39:16;;;;;;;6.35;1.45;;;16.50;99.90;;;;;;5051447;28;20240;-72
2023/08/13 05:41:42;;;;;;;5.72;1.23;;;16.50;99.90;;;;;;5051294;28;20169;-71
2023/08/13 05:44:07;;;;;;;4.25;1.00;;;16.50;99.90;;;;;;5051386;28;20178;-71
2023/08/13 05:46:33;;;;;;;4.22;1.23;;;16.80;99.90;;;;;;5051424;28;20635;-72
2023/08/13 05:48:59;;;;;;;4.38;1.20;;;16.50;99.90;;;;;;5051008;28;20256;-72
2023/08/13 05:51:24;;;;;;;3.50;0.98;;;16.50;99.90;;;;;;5051245;28;20201;-73
2023/08/13 05:53:50;;;;;;;4.47;0.90;;;16.50;99.90;;;;;;5051156;28;20169;-73
2023/08/13 05:56:16;;;;;;;7.82;1.20;;;16.60;99.90;;;;;;5050381;28;20173;-71
2023/08/13 05:58:41;;;;;;;8.20;1.42;;;16.60;99.90;;;;;;5051085;28;20660;-71
2023/08/13 06:01:07;;;;;;;7.18;1.38;;;16.50;99.90;;;;;;5050982;28;20640;-71
2023/08/13 06:03:35;;;;;;;5.47;1.13;;;16.60;99.90;;;;;;5037006;28;20169;-72
2023/08/13 06:06:01;;;;;;;4.20;0.82;;;16.60;99.90;;;;;;5050802;28;20181;-71
2023/08/13 06:08:26;;;;;;;4.95;0.95;;;16.50;99.90;;;;;;5043755;28;20165;-71
2023/08/13 06:10:52;;;;;;;6.38;1.35;;;16.50;99.90;;;;;;5030872;28;20614;-76
2023/08/13 06:13:17;;;;;;;4.35;1.10;;;16.80;99.90;;;;;;5030836;28;20184;-74
2023/08/13 06:15:43;;;;;;;3.85;1.15;;;16.50;99.90;;;;;;5030778;28;20691;-73
2023/08/13 06:18:09;;;;;;;4.10;0.80;;;16.70;99.90;;;;;;5036404;28;20174;-75
2023/08/13 06:20:35;;;;;;;6.32;1.10;;;16.80;99.90;;;;;;5049590;28;20223;-74
2023/08/13 06:23:00;;;;;;;4.80;0.90;;;16.80;99.90;;;;;;5047902;28;20185;-73
2023/08/13 06:25:26;;;;;;;5.10;1.10;;;16.70;99.90;;;;;;5049140;28;20283;-73
2023/08/13 06:27:51;;;;;;;3.80;0.90;;;16.90;99.90;;;;;;5050248;28;20177;-72
2023/08/13 06:30:17;;;;;;;5.95;1.38;;;;;;;;;;5050374;28;20205;-72
2023/08/13 06:32:43;;;;;;;6.75;1.20;;;16.90;99.90;;;;;;5050332;28;20184;-73
2023/08/13 06:35:10;;;;;;;6.47;1.10;;;;;;;;;;5050523;28;20165;-73
2023/08/13 06:37:35;;;;;;;4.55;0.90;;;16.90;99.90;;;;;;5050526;28;20218;-75
2023/08/13 06:40:01;;;;;;;4.13;1.10;;;16.80;99.90;;;;;;5050723;28;20165;-73
2023/08/13 06:42:27;;;;;;;4.25;0.90;;;16.80;99.90;;;;;;5049334;28;20186;-73
2023/08/13 06:44:52;;;;;;;5.95;1.05;;;17.00;99.90;;;;;;5049102;28;20173;-73
2023/08/13 06:47:18;;;;;;;3.28;0.88;;;17.10;99.90;;;;;;5050572;28;20201;-73
2023/08/13 06:49:44;;;;;;;2.50;1.00;;;;;;;;;;5050217;28;20204;-72
2023/08/13 06:52:10;;;;;;;5.15;1.08;;;17.00;99.90;;;;;;5050461;28;20658;-72
2023/08/13 06:54:36;;;;;;;2.90;0.95;;;;;;;;;;5049228;28;20177;-73
2023/08/13 06:57:01;;;;;;;6.88;1.00;;;17.00;99.90;;;;;;5050439;28;20173;-73
2023/08/13 06:59:27;;;;;;;6.53;1.40;;;17.10;99.90;;;;;;5049535;28;20173;-72
2023/08/13 07:01:53;;;;;;;2.35;1.08;;;17.20;99.90;;;;;;5050372;28;20177;-73
2023/08/13 07:04:18;;;;;;;8.07;1.17;;;17.20;99.90;;;;;;5050567;28;20370;-73
2023/08/13 07:06:44;;;;;;;4.05;1.02;;;16.90;99.90;;;;;;5050434;28;20695;-73
2023/08/13 07:09:10;;;;;;;5.07;1.10;;;17.10;99.90;;;;;;5053258;28;20181;-73
2023/08/13 07:11:36;;;;;;;4.60;1.23;;;16.90;99.90;;;;;;5053968;28;20274;-74
2023/08/13 07:14:03;;;;;;;5.72;1.30;;;16.90;99.90;;;;;;5052620;28;20174;-74
2023/08/13 07:16:29;;;;;;;5.43;1.42;;;17.20;99.90;;;;;;5053759;28;20238;-68
2023/08/13 07:18:55;;;;;;;6.13;1.50;;;17.10;99.90;;;;;;5053688;28;20698;-71
2023/08/13 07:21:20;;;;;;;4.53;0.90;;;16.60;99.90;;;;;;5053135;28;20177;-72
2023/08/13 07:23:46;;;;;;;3.80;1.10;;;16.70;99.90;;;;;;5051838;28;20641;-72
2023/08/13 07:26:11;;;;;;;2.97;0.85;;;16.30;99.90;;;;;;5052983;28;20224;-71
2023/08/13 07:28:40;;;;;;;5.32;1.10;;;16.20;99.90;;;;;;5035751;28;20177;-72
2023/08/13 07:31:05;;;;;;;6.32;1.10;;;15.80;99.90;;;;;;5042187;28;20760;-71
2023/08/13 07:33:32;;;;;;;3.88;0.80;;;15.50;99.90;;;;;;5053769;28;20177;-72
2023/08/13 07:35:59;;;;;;;8.35;0.95;;;15.60;99.90;;;;;;5053568;28;20227;-72
2023/08/13 07:38:25;;;;;;;9.20;1.10;;;15.70;99.90;;;;;;5053515;28;20586;-71
2023/08/13 07:40:51;;;;;;;8.60;1.00;;;15.60;99.90;;;;;;5052142;28;20177;-72
2023/08/13 07:43:17;;;;;;;6.43;1.00;;;15.60;99.90;;;;;;5053267;28;20177;-71
2023/08/13 07:45:43;;;;;;;8.07;1.17;;;;;;;;;;5053371;28;20169;-71
2023/08/13 07:48:09;;;;;;;3.95;0.82;;;15.30;99.90;;;;;;5053275;28;20192;-72
2023/08/13 07:50:35;;;;;;;2.30;0.70;;;15.40;99.90;;;;;;5052599;28;20244;-71
2023/08/13 07:53:00;;;;;;;6.20;1.10;;;15.20;99.90;;;;;;5053232;28;20240;-71
2023/08/13 07:55:26;;;;;;;4.85;0.73;;;15.50;99.90;;;;;;5053684;28;20232;-71
2023/08/13 07:57:52;;;;;;;9.07;1.38;;;15.60;99.90;;;;;;5051474;28;20180;-72
2023/08/13 08:00:17;;;;;;;7.47;1.48;;;15.80;99.90;;;;;;5052921;28;20177;-72
2023/08/13 08:02:43;;;;;;;5.72;0.95;;;15.80;99.90;;;;;;5053182;28;20578;-72
2023/08/13 08:05:10;;;;;;;7.68;0.93;;;15.80;99.90;;;;;;5052741;28;20181;-73
2023/08/13 08:07:36;;;;;;;6.30;0.90;;;15.70;99.90;;;;;;5053111;28;20165;-73
2023/08/13 08:10:02;;;;;;;8.30;1.30;;;;;;;;;;5051706;28;20533;-73
2023/08/13 08:12:27;;;;;;;4.53;1.00;;;16.00;99.90;;;;;;5052622;28;20192;-73
2023/08/13 08:14:53;;;;;;;7.28;1.10;;;16.00;99.90;;;;;;5052781;28;20541;-72
2023/08/13 08:17:19;;;;;;;6.35;0.82;;;16.40;99.90;;;;;;5052499;28;20180;-72
2023/08/13 08:19:44;;;;;;;3.78;0.90;;;18.00;99.90;;;;;;5051740;28;20596;-72
2023/08/13 08:22:10;;;;;;;8.85;0.98;;;16.30;99.90;;;;;;5052367;28;20173;-74
2023/08/13 08:24:35;;;;;;;5.63;0.93;;;16.30;99.90;;;;;;5051437;28;20252;-74
2023/08/13 08:27:01;;;;;;;4.53;0.70;;;16.70;99.90;;;;;;5052614;28;20228;-73
2023/08/13 08:29:27;;;;;;;4.80;1.02;;;16.70;99.90;;;;;;5051206;28;20742;-73
2023/08/13 08:31:52;;;;;;;4.05;0.75;;;16.90;99.90;;;;;;5052743;28;20185;-73
2023/08/13 08:34:19;;;;;;;3.85;0.70;;;;;;;;;;5050941;28;20235;-73
2023/08/13 08:36:44;;;;;;;5.68;1.20;;;17.20;99.90;;;;;;5052292;28;20173;-72
2023/08/13 08:39:11;;;;;;;5.70;0.90;;;;;;;;;;5048764;28;20185;-73
2023/08/13 08:41:40;;;;;;;8.60;1.27;;;17.80;99.90;;;;;;5052019;28;20181;-73
2023/08/13 08:44:07;;;;;;;3.75;0.85;;;17.90;99.90;;;;;;5052235;28;20264;-73
2023/08/13 08:46:33;;;;;;;4.05;0.82;;;17.80;99.90;;;;;;5050859;28;20176;-73
2023/08/13 08:49:00;;;;;;;4.22;0.90;;;17.80;99.90;;;;;;5051783;28;20173;-73
2023/08/13 08:51:25;;;;;;;7.97;1.20;;;17.90;99.90;;;;;;5051978;28;20518;-73
2023/08/13 08:53:52;;;;;;;8.85;1.05;;;18.00;99.90;;;;;;5051783;28;20660;-72
2023/08/13 08:56:18;;;;;;;6.32;0.90;;;18.70;99.90;;;;;;5051859;28;20223;-73
2023/08/13 08:58:44;;;;;;;5.13;1.02;;;18.80;99.90;;;;;;5051730;28;20184;-73
2023/08/13 09:01:09;;;;;;;4.22;1.02;;;19.70;99.90;;;;;;5051635;28;20644;-76
2023/08/13 09:03:36;;;;;;;5.88;1.00;;;19.50;99.90;;;;;;5051833;28;20654;-75
2023/08/13 09:06:01;;;;;;;6.80;0.90;;;20.60;99.90;;;;;;5051737;28;20193;-75
2023/08/13 09:08:27;;;;;;;5.78;1.15;;;21.00;99.90;;;;;;5051802;28;20627;-73
2023/08/13 09:10:53;;;;;;;1.90;0.60;;;21.60;99.90;;;;;;5049821;28;20331;-73
2023/08/13 09:13:18;;;;;;;3.03;0.93;;;22.40;99.90;;;;;;5051324;28;20177;-72
2023/08/13 09:15:49;;;;;;;5.65;0.95;;;22.00;99.90;;;;;;5051577;28;20169;-74
2023/08/13 09:18:15;;;;;;;5.22;1.10;;;22.20;99.90;;;;;;5051633;28;20169;-72
2023/08/13 09:20:45;;;;;;;6.03;1.27;;;21.30;99.90;;;;;;5051219;28;20188;-72
2023/08/13 09:23:21;;;;;;;5.22;0.90;;;21.20;99.90;;;;;;5050192;28;20191;-73
2023/08/13 09:25:52;;;;;;;7.07;0.90;;;20.40;99.90;;;;;;5051404;28;20243;-72
2023/08/13 09:28:18;;;;;;;6.07;0.93;;;;;;;;;;5049774;28;20183;-72
2023/08/13 09:30:44;;;;;;;4.53;1.00;;;20.00;99.90;;;;;;5051040;28;20622;-71
2023/08/13 09:33:17;;;;;;;9.70;1.10;;;19.70;99.90;;;;;;5051150;28;20169;-73
2023/08/13 09:35:44;;;;;;;7.63;1.13;;;19.60;99.90;;;;;;5049934;28;20196;-72
2023/08/13 09:38:09;;;;;;;5.85;1.13;;;19.60;99.90;;;;;;5050814;28;20636;-71
2023/08/13 09:40:35;;;;;;;6.53;1.48;;;19.70;99.90;;;;;;5051201;28;20177;-72
2023/08/13 09:43:08;;;;;;;6.55;1.13;;;19.30;99.90;;;;;;5051004;28;20643;-71
2023/08/13 09:45:35;;;;;;;9.68;1.00;;;19.30;99.90;;;;;;5049859;28;20173;-71
2023/08/13 09:48:06;;;;;;;6.15;1.05;;;19.30;99.90;;;;;;5051033;28;20679;-74
2023/08/13 09:50:39;;;;;;;8.55;1.13;;;19.30;99.90;;;;;;5050748;28;20219;-74
2023/08/13 09:53:12;;;;;;;7.18;1.10;;;19.30;99.90;;;;;;5049588;28;20169;-73
2023/08/13 09:55:48;;;;;;;5.78;1.10;;;20.00;99.90;;;;;;5050411;28;20636;-73
2023/08/13 09:58:17;;;;;;;7.88;1.17;;;20.90;99.90;;;;;;5050334;28;20172;-74
2023/08/13 10:00:43;;;;;;;6.07;1.00;;;20.90;99.90;;;;;;5050671;28;20230;-74
2023/08/13 10:03:09;;;;;;;11.43;1.63;;;21.00;99.90;;;;;;5050887;28;20664;-72
2023/08/13 10:05:36;;;;;;;10.23;1.50;;;21.20;99.90;;;;;;5050726;28;20169;-74
2023/08/13 10:08:02;;;;;;;4.13;1.10;;;21.00;99.90;;;;;;5050730;28;20176;-73
2023/08/13 10:10:30;;;;;;;9.40;1.35;;;20.70;1.00;;;;;;5049520;28;20205;-73
2023/08/13 10:12:56;;;;;;;7.18;1.35;;;20.90;1.00;;;;;;5049465;28;20177;-74
2023/08/13 10:15:22;;;;;;;7.32;1.33;;;20.90;1.00;;;;;;5050378;28;20180;-74
2023/08/13 10:17:51;;;;;;;4.38;1.33;;;20.90;1.00;;;;;;5050771;28;20215;-73
2023/08/13 10:20:18;;;;;;;4.43;0.85;;;21.30;99.90;;;;;;5049185;28;20701;-74
2023/08/13 10:22:46;;;;;;;4.18;1.00;;;21.70;1.00;;;;;;5050800;28;20180;-72
2023/08/13 10:25:26;;;;;;;4.35;0.90;;;22.30;1.00;;;;;;5050522;28;20173;-74
2023/08/13 10:27:53;;;;;;;6.10;0.70;;;22.00;1.00;;;;;;5050717;28;20165;-75
2023/08/13 10:30:19;;;;;;;7.78;1.10;;;21.70;1.00;;;;;;5042444;28;20571;-75
2023/08/13 10:32:57;;;;;;;5.88;0.95;;;21.20;1.00;;;;;;5044472;28;20273;-74
2023/08/13 10:35:24;;;;;;;3.35;0.90;;;21.80;99.90;;;;;;5048572;28;20291;-75
2023/08/13 10:37:52;;;;;;;4.88;1.05;;;21.70;1.00;;;;;;5050564;28;20173;-74
2023/08/13 10:40:19;;;;;;;4.88;1.08;;;22.10;1.00;;;;;;5050461;28;20172;-75
2023/08/13 10:42:47;;;;;;;4.55;0.75;;;22.00;1.00;;;;;;5050917;28;20203;-73
2023/08/13 10:45:23;;;;;;;2.95;0.52;;;22.20;1.00;;;;;;5054406;28;20267;-72
2023/08/13 10:47:55;;;;;;;7.35;0.90;;;21.60;1.00;;;;;;5053115;28;20184;-76
2023/08/13 10:50:23;;;;;;;3.72;0.70;;;21.70;99.90;;;;;;5053816;28;20243;-74
2023/08/13 10:52:53;;;;;;;6.72;1.00;;;21.40;99.90;;;;;;5053941;28;20200;-72
2023/08/13 10:55:22;;;;;;;4.75;0.90;;;21.70;94.50;;;;;;5054056;28;20204;-74
2023/08/13 10:57:54;;;;;;;2.83;0.70;;;21.80;1.00;;;;;;5054404;28;20243;-73
2023/08/13 11:00:25;;;;;;;2.05;0.55;;;22.00;1.00;;;;;;5054171;28;20180;-72
2023/08/13 11:03:15;;;;;;;5.65;1.05;;;21.70;99.90;;;;;;5053106;28;20197;-72
2023/08/13 11:05:42;;;;;;;4.65;0.90;;;22.00;97.50;;;;;;5051221;28;20617;-74
2023/08/13 11:08:08;;;;;;;3.92;0.75;;;22.10;1.00;;;;;;5052109;28;20184;-74
2023/08/13 11:10:35;;;;;;;3.45;0.70;;;22.30;49.00;;;;;;5050770;28;20692;-73
2023/08/13 11:13:05;;;;;;;3.35;0.98;;;21.50;96.60;;;;;;5053138;28;20196;-74
2023/08/13 11:15:30;;;;;;;6.85;0.68;;;21.50;1.00;;;;;;5052946;28;20169;-75
2023/08/13 11:17:56;;;;;;;4.80;1.02;;;21.50;99.90;;;;;;5051598;28;20188;-74
2023/08/13 11:20:23;;;;;;;4.03;0.80;;;21.10;1.00;;;;;;5052804;28;20177;-74
2023/08/13 11:22:49;;;;;;;2.47;0.50;;;21.20;1.00;;;;;;5052350;28;20650;-74
2023/08/13 11:25:15;;;;;;;3.38;0.70;;;20.70;1.00;;;;;;5053480;28;20185;-73
2023/08/13 11:27:41;;;;;;;2.95;0.60;;;20.50;99.90;;;;;;5052044;28;20215;-73
2023/08/13 11:30:07;;;;;;;8.95;1.30;;;20.40;1.00;;;;;;5053482;28;20215;-73
2023/08/13 11:32:36;;;;;;;4.18;1.00;;;20.10;70.00;;;;;;5052600;28;20189;-74
2023/08/13 11:35:09;;;;;;;4.53;0.70;;;20.30;53.60;;;;;;5053814;28;20177;-72
2023/08/13 11:37:37;;;;;;;2.83;0.70;;;20.20;1.00;;;;;;5053535;28;20196;-72
2023/08/13 11:40:05;;;;;;;4.13;0.90;;;20.40;97.00;;;;;;5053306;28;20169;-72
2023/08/13 11:42:31;;;;;;;4.30;1.05;;;20.70;99.90;;;;;;5053074;28;20175;-73
2023/08/13 11:44:57;;;;;;;3.05;0.90;;;21.00;99.90;;;;;;5053336;28;20215;-74
2023/08/13 11:47:27;;;;;;;6.72;0.95;;;20.80;1.00;;;;;;5052575;28;20193;-75
2023/08/13 11:49:59;;;;;;;4.80;0.98;;;21.10;1.00;;;;;;5052915;28;20177;-73
2023/08/13 11:52:25;;;;;;;5.72;0.95;;;21.00;1.00;;;;;;5052760;28;20181;-75
2023/08/13 11:54:51;;;;;;;6.45;1.35;;;20.70;1.00;;;;;;5051502;28;20180;-75
2023/08/13 11:57:19;;;;;;;5.30;1.10;;;20.60;1.00;;;;;;5052933;28;20200;-75
2023/08/13 11:59:47;;;;;;;6.30;1.25;;;20.40;1.00;;;;;;5051548;28;20169;-76
2023/08/13 12:02:15;;;;;;;4.15;0.95;;;20.20;99.90;;;;;;5051063;28;20169;-74
2023/08/13 12:04:45;;;;;;;8.80;1.15;;;20.10;1.00;;;;;;5051115;28;20731;-73
2023/08/13 12:07:10;;;;;;;6.38;1.02;;;20.70;1.00;;;;;;5051752;28;20624;-75
2023/08/13 12:09:36;;;;;;;6.88;1.15;;;21.40;99.90;;;;;;5051045;28;20201;-74
2023/08/13 12:12:02;;;;;;;7.43;1.20;;;21.40;1.00;;;;;;5051982;28;20177;-73
2023/08/13 12:14:28;;;;;;;4.63;0.95;;;22.70;99.90;;;;;;5050925;28;20246;-74
2023/08/13 12:16:55;;;;;;;4.63;0.90;;;23.90;1.00;;;;;;5052122;28;20177;-74
2023/08/13 12:19:21;;;;;;;3.70;0.73;;;23.60;1.00;;;;;;5052851;28;20192;-74
2023/08/13 12:21:48;;;;;;;3.72;0.88;;;22.60;1.00;;;;;;5051717;28;20647;-74
2023/08/13 12:24:13;;;;;;;3.05;0.90;;;22.50;1.00;;;;;;5052725;28;20781;-76
2023/08/13 12:26:39;;;;;;;6.50;1.08;;;22.40;1.00;;;;;;5052608;28;20289;-76
2023/08/13 12:29:04;;;;;;;4.18;1.30;;;22.20;1.00;;;;;;5052667;28;20227;-75
2023/08/13 12:31:31;;;;;;;4.78;0.85;;;22.30;1.00;;;;;;5052536;28;20565;-76
2023/08/13 12:33:57;;;;;;;5.65;1.10;;;22.30;99.90;;;;;;5052405;28;20181;-75
2023/08/13 12:36:23;;;;;;;8.05;1.20;;;22.50;1.00;;;;;;5051570;28;20230;-75
2023/08/13 12:38:48;;;;;;;7.53;1.55;;;22.50;1.00;;;;;;5052600;28;20189;-74
2023/08/13 12:41:14;;;;;;;6.40;1.38;;;22.60;99.90;;;;;;5052012;28;20215;-76
2023/08/13 12:43:40;;;;;;;6.00;1.63;;;22.60;1.00;;;;;;5052349;28;20177;-76
2023/08/13 12:46:06;;;;;;;4.07;1.30;;;22.70;1.00;;;;;;5052355;28;20567;-77
2023/08/13 12:48:35;;;;;;;5.07;1.30;;;22.50;1.00;;;;;;5052147;28;20172;-75
2023/08/13 12:51:01;;;;;;;5.88;1.42;;;22.20;1.00;;;;;;5052163;28;20213;-75